KPOC/POC METAR and TAF weather

Enter ICAO airport designator
Station Type Date Time Source
KPOC METAR 2022/09/28 19:47 UTC NOAA

KPOC 281947Z 25010KT 10SM CLR 33/15 A2997


Station Type Date Time Source
KPOC Decoded METAR 2022/09/28 19:47 UTC NOAA

La Verne / Brackett, CA, United States (KPOC) 34-06N 117-47W
Sep 28, 2022 - 03:47 PM EDT / 2022.09.28 1947 UTC
Wind: from the WSW (250 degrees) at 12 MPH (10 KT):0
Visibility: 10 mile(s):0
Sky conditions: clear
Temperature: 91 F (33 C)
Dew Point: 59 F (15 C)
Relative Humidity: 33%
Pressure (altimeter): 29.97 in. Hg (1014 hPa)
ob: KPOC 281947Z 25010KT 10SM CLR 33/15 A2997
cycle: 20

Station Type Date Time Source
KPOC TAF UTC NOAA

Error!

Example: see airport list